Time;durP1;ratioP1;P1;durP2;ratioP2;P2;SDS_P1;SDS_P2;PMS_P1;PMS_P2;Temp;Humidity;BMP_temperature;BMP_pressure;BME280_temperature;BME280_humidity;BME280_pressure;Samples;Min_cycle;Max_cycle;Signal;HPM_P1;HPM_P2
2022/08/22 00:03:02;;;;;;;;;;;;;;;20.51;85.90;99590.28;5359146;32;45424;-63
2022/08/22 00:06:23;;;;;;;;;;;;;;;20.63;83.46;99582.94;5373706;32;45024;-82
2022/08/22 00:09:40;;;;;;;;;;;;;;;20.04;87.75;99582.13;5370521;32;35723;-65
2022/08/22 00:12:49;;;;;;;;;;;;;;;20.32;85.36;99579.59;5374549;32;34545;-64
2022/08/22 00:15:51;;;;;;;;;;;;;;;19.71;88.72;99580.69;5372398;32;47898;-83
2022/08/22 00:19:13;;;;;;;;;;;;;;;20.23;86.85;99584.78;5360490;32;35420;-65
2022/08/22 00:22:19;;;;;;;;;;;;;;;20.38;83.93;99577.19;5372861;32;43456;-64
2022/08/22 00:25:33;;;;;;;;;;;;;;;20.19;85.60;99579.88;5354680;32;36728;-83
2022/08/22 00:28:59;;;;;;;;;;;;;;;20.52;84.68;99584.78;5361940;32;34660;-83
2022/08/22 00:32:00;;;;;;;;;;;;;;;20.24;85.05;99578.47;5375607;32;35387;-83
2022/08/22 00:35:02;;;;;;;;;;;;;;;19.61;88.71;99588.66;5371869;32;34596;-84
2022/08/22 00:38:14;;;;;;;;;;;;;;;20.37;85.06;99580.00;5394317;32;34558;-85
2022/08/22 00:41:23;;;;;;;;;;;;;;;20.15;84.61;99581.97;5377768;32;45251;-83
2022/08/22 00:44:28;;;;;;;;;;;;;;;20.52;83.71;99583.94;5365824;32;34348;-66
2022/08/22 00:47:36;;;;;;;;;;;;;;;21.16;79.71;99582.34;5380289;32;34532;-64
2022/08/22 00:50:42;;;;;;;;;;;;;;;20.32;84.37;99591.09;5375664;32;34658;-85
2022/08/22 00:54:03;;;;;;;;;;;;;;;20.74;81.11;99591.63;5396165;32;43619;-64
2022/08/22 00:57:22;;;;;;;;;;;;;;;21.02;79.63;99589.84;5357983;32;34641;-82
2022/08/22 01:00:25;;;;;;;;;;;;;;;20.33;82.48;99589.25;5379045;32;34794;-64
2022/08/22 01:03:48;;;;;;;;;;;;;;;20.45;81.31;99593.50;5335038;32;837226;-84
2022/08/22 01:07:22;;;;;;;;;;;;;;;20.04;83.35;99594.63;5364435;32;44613;-83
2022/08/22 01:10:49;;;;;;;;;;;;;;;20.37;82.14;99591.53;5360009;32;34069;-73
2022/08/22 01:13:54;;;;;;;;;;;;;;;20.45;81.52;99585.50;5388279;32;45207;-73
2022/08/22 01:16:59;;;;;;;;;;;;;;;20.47;80.88;99584.34;5366828;32;34909;-65
2022/08/22 01:20:20;;;;;;;;;;;;;;;20.45;82.55;99588.16;5386960;32;34455;-64
2022/08/22 01:23:40;;;;;;;;;;;;;;;21.03;78.85;99583.53;5361807;32;44842;-83
2022/08/22 01:26:45;;;;;;;;;;;;;;;20.13;83.90;99591.94;5379468;32;34444;-64
2022/08/22 01:29:50;;;;;;;;;;;;;;;20.86;80.17;99588.78;5396206;32;44519;-64
2022/08/22 01:33:10;;;;;;;;;;;;;;;20.36;82.02;99589.00;5379355;32;34313;-64
2022/08/22 01:36:15;;;;;;;;;;;;;;;20.96;78.54;99590.44;5396147;32;36541;-83
2022/08/22 01:39:26;;;;;;;;;;;;;;;20.60;81.35;99583.22;5380454;32;44518;-64
2022/08/22 01:42:46;;;;;;;;;;;;;;;20.77;79.89;99582.50;5370863;32;34463;-84
2022/08/22 01:45:51;;;;;;;;;;;;;;;20.28;83.15;99579.84;5393040;32;44949;-83
2022/08/22 01:48:56;;;;;;;;;;;;;;;20.27;83.79;99588.00;5379537;32;34901;-73
2022/08/22 01:52:07;;;;;;;;;;;;;;;20.53;82.17;99583.78;5394531;32;34904;-66
2022/08/22 01:55:08;;;;;;;;;;;;;;;20.31;82.98;99584.06;5379940;32;34919;-65
2022/08/22 01:58:18;;;;;;;;;;;;;;;19.91;84.12;99590.41;5370397;32;34399;-84
2022/08/22 02:01:23;;;;;;;;;;;;;;;20.13;83.19;99597.28;5387460;32;44745;-63
2022/08/22 02:04:37;;;;;;;;;;;;;;;20.05;83.75;99588.28;5366857;32;35420;-74
2022/08/22 02:07:47;;;;;;;;;;;;;;;20.14;82.36;99590.09;5377622;32;35188;-65
2022/08/22 02:10:55;;;;;;;;;;;;;;;20.42;82.15;99588.44;5364537;32;43194;-63
2022/08/22 02:14:12;;;;;;;;;;;;;;;20.28;81.81;99579.84;5372471;32;34623;-83
2022/08/22 02:17:14;;;;;;;;;;;;;;;20.42;80.43;99578.59;5374696;32;45081;-83
2022/08/22 02:20:16;;;;;;;;;;;;;;;21.03;77.81;99574.69;5366307;32;34631;-66
2022/08/22 02:23:29;;;;;;;;;;;;;;;20.63;78.74;99577.59;5377497;32;34929;-64
2022/08/22 02:26:37;;;;;;;;;;;;;;;20.37;82.15;99574.66;5360145;32;34496;-65
2022/08/22 02:29:41;;;;;;;;;;;;;;;20.53;80.28;99578.44;5394061;32;35229;-64
2022/08/22 02:32:45;;;;;;;;;;;;;;;20.50;80.69;99577.91;5366764;32;34524;-83
2022/08/22 02:35:58;;;;;;;;;;;;;;;20.86;78.58;99573.59;5377791;32;44486;-64
2022/08/22 02:39:06;;;;;;;;;;;;;;;20.55;79.70;99565.81;5381219;32;34706;-65
2022/08/22 02:42:11;;;;;;;;;;;;;;;20.68;79.25;99568.19;5377854;32;35684;-65
2022/08/22 02:45:32;;;;;;;;;;;;;;;20.52;80.87;99570.59;5395656;32;34389;-84
2022/08/22 02:48:34;;;;;;;;;;;;;;;20.28;81.38;99568.34;5381021;32;34679;-66
2022/08/22 02:51:54;;;;;;;;;;;;;;;21.29;77.21;99564.19;5377602;32;34777;-73
2022/08/22 02:55:02;;;;;;;;;;;;;;;21.72;74.61;99560.84;5393337;32;34402;-65
2022/08/22 02:58:10;;;;;;;;;;;;;;;20.88;78.45;99565.47;5342684;32;36225;-65
2022/08/22 03:01:16;;;;;;;;;;;;;;;20.70;80.22;99573.38;5380544;32;35116;-64
2022/08/22 03:04:21;;;;;;;;;;;;;;;21.33;76.79;99570.94;5370679;32;45395;-65
2022/08/22 03:07:26;;;;;;;;;;;;;;;21.01;77.87;99569.47;5365382;32;34624;-66
2022/08/22 03:10:34;;;;;;;;;;;;;;;21.00;78.24;99565.13;5366446;32;35883;-84
2022/08/22 03:13:45;;;;;;;;;;;;;;;21.00;78.15;99570.47;5343673;32;34530;-83
2022/08/22 03:16:54;;;;;;;;;;;;;;;20.39;80.56;99575.34;5378709;32;46580;-64
2022/08/22 03:20:03;;;;;;;;;;;;;;;20.62;79.49;99579.44;5364196;32;34122;-65
2022/08/22 03:23:24;;;;;;;;;;;;;;;20.43;81.20;99576.78;5366689;32;34863;-63
2022/08/22 03:26:29;;;;;;;;;;;;;;;20.31;81.85;99578.75;5394803;32;35023;-65
2022/08/22 03:29:39;;;;;;;;;;;;;;;20.39;81.16;99578.88;5380041;32;34211;-83
2022/08/22 03:32:54;;;;;;;;;;;;;;;20.77;79.62;99577.97;5364875;32;34719;-84
2022/08/22 03:36:15;;;;;;;;;;;;;;;21.03;76.89;99586.19;5378512;32;34264;-64
2022/08/22 03:39:17;;;;;;;;;;;;;;;20.64;79.60;99588.13;5379772;32;44486;-64
2022/08/22 03:42:23;;;;;;;;;;;;;;;21.47;75.44;99583.78;5392784;32;35338;-84
2022/08/22 03:45:29;;;;;;;;;;;;;;;20.97;78.60;99589.44;5361404;32;35144;-74
2022/08/22 03:48:54;;;;;;;;;;;;;;;21.51;75.17;99590.53;5376649;32;35739;-84
2022/08/22 03:51:59;;;;;;;;;;;;;;;20.54;80.07;99593.50;5355257;32;34739;-85
2022/08/22 03:55:00;;;;;;;;;;;;;;;21.34;76.30;99594.81;5386209;32;34777;-85
2022/08/22 03:58:15;;;;;;;;;;;;;;;21.03;78.06;99590.69;5366352;32;35251;-85
2022/08/22 04:01:34;;;;;;;;;;;;;;;20.74;79.67;99596.13;5371523;32;34593;-84
2022/08/22 04:04:51;;;;;;;;;;;;;;;20.65;79.65;99592.47;5385865;32;34428;-64
2022/08/22 04:07:53;;;;;;;;;;;;;;;20.48;82.41;99590.53;5375896;32;44960;-67
2022/08/22 04:11:02;;;;;;;;;;;;;;;21.04;79.31;99595.06;5380058;32;34770;-65
2022/08/22 04:14:23;;;;;;;;;;;;;;;20.97;78.34;99600.13;5387958;32;34304;-66
2022/08/22 04:17:28;;;;;;;;;;;;;;;21.31;78.40;99599.59;5346051;32;35425;-66
2022/08/22 04:20:49;;;;;;;;;;;;;;;21.83;74.82;99589.19;5384124;32;35272;-84
2022/08/22 04:23:56;;;;;;;;;;;;;;;22.12;73.80;99586.34;5376090;32;43116;-74
2022/08/22 04:27:21;;;;;;;;;;;;;;;21.00;79.04;99599.03;5378660;32;35315;-84
2022/08/22 04:30:35;;;;;;;;;;;;;;;21.18;78.10;99607.94;5366850;32;45192;-65
2022/08/22 04:33:44;;;;;;;;;;;;;;;21.52;76.29;99597.56;5378333;32;34664;-64
2022/08/22 04:36:48;;;;;;;;;;;;;;;21.66;75.12;99598.88;5390573;32;44880;-66
2022/08/22 04:40:10;;;;;;;;;;;;;;;20.91;79.10;99606.06;5364527;32;34300;-85
2022/08/22 04:43:19;;;;;;;;;;;;;;;20.72;80.03;99608.78;5378383;32;35387;-64
2022/08/22 04:46:26;;;;;;;;;;;;;;;21.01;78.88;99612.22;5378749;32;47157;-75
2022/08/22 04:49:39;;;;;;;;;;;;;;;20.94;79.61;99619.13;5378650;32;34036;-64
2022/08/22 04:52:47;;;;;;;;;;;;;;;21.96;75.33;99610.22;5393325;32;36434;-84
2022/08/22 04:56:01;;;;;;;;;;;;;;;21.19;78.77;99616.78;5369918;32;44036;-65
2022/08/22 04:59:10;;;;;;;;;;;;;;;21.10;79.01;99614.00;5373750;32;35365;-65
2022/08/22 05:02:12;;;;;;;;;;;;;;;21.48;77.82;99612.19;5379556;32;36022;-84
2022/08/22 05:05:24;;;;;;;;;;;;;;;21.69;76.01;99611.09;5353747;32;44650;-84
2022/08/22 05:08:29;;;;;;;;;;;;;;;22.19;73.72;99613.31;5394356;32;35049;-65
2022/08/22 05:11:31;;;;;;;;;;;;;;;21.42;78.37;99609.28;5370636;32;34411;-66
2022/08/22 05:14:37;;;;;;;;;;;;;;;22.61;73.06;99609.03;5367456;32;33203;-83
2022/08/22 05:17:39;;;;;;;;;;;;;;;22.19;75.08;99614.16;5384809;32;34641;-65
2022/08/22 05:20:43;;;;;;;;;;;;;;;22.58;72.78;99622.69;5351099;32;34876;-65
2022/08/22 05:23:53;;;;;;;;;;;;;;;22.45;72.99;99619.59;5364212;32;44241;-84
2022/08/22 05:26:56;;;;;;;;;;;;;;;22.38;73.98;99626.56;5378195;32;34392;-65
2022/08/22 05:30:03;;;;;;;;;;;;;;;21.61;78.53;99634.09;5367322;32;34843;-64
2022/08/22 05:33:17;;;;;;;;;;;;;;;22.47;73.11;99630.97;5360075;32;34234;-83
2022/08/22 05:36:29;;;;;;;;;;;;;;;22.19;75.57;99632.06;5355675;32;44689;-69
2022/08/22 05:39:31;;;;;;;;;;;;;;;22.58;73.60;99632.56;5377858;32;34141;-64
2022/08/22 05:42:35;;;;;;;;;;;;;;;22.75;71.95;99644.28;5367254;32;34348;-65
2022/08/22 05:45:37;;;;;;;;;;;;;;;22.60;73.18;99642.13;5372118;32;34579;-86
2022/08/22 05:51:54;;;;;;;;;;;;;;;22.25;75.42;99647.50;5403163;27;46089;-73
2022/08/22 05:54:58;;;;;;;;;;;;;;;22.56;74.63;99651.47;5381311;32;34697;-63
2022/08/22 05:58:09;;;;;;;;;;;;;;;22.79;72.00;99646.47;5396373;32;34937;-64
2022/08/22 06:01:26;;;;;;;;;;;;;;;23.10;70.96;99649.56;5364642;32;44928;-63
2022/08/22 06:04:52;;;;;;;;;;;;;;;22.79;73.30;99653.66;5381837;32;34919;-64
2022/08/22 06:08:22;;;;;;;;;;;;;;;22.95;72.65;99659.19;5392905;32;35034;-64
2022/08/22 06:11:26;;;;;;;;;;;;;;;23.38;70.56;99655.59;5372261;32;34462;-75
2022/08/22 06:14:41;;;;;;;;;;;;;;;23.19;71.51;99663.88;5390760;32;34207;-63
2022/08/22 06:17:44;;;;;;;;;;;;;;;22.77;72.88;99663.69;5383885;32;45465;-63
2022/08/22 06:20:47;;;;;;;;;;;;;;;22.95;72.23;99672.59;5368256;32;33581;-62
2022/08/22 06:23:52;;;;;;;;;;;;;;;23.51;70.47;99668.56;5389310;32;32929;-62
2022/08/22 06:26:56;;;;;;;;;;;;;;;22.39;75.93;99671.91;5376464;32;34447;-62
2022/08/22 06:29:59;;;;;;;;;;;;;;;22.80;73.57;99669.59;5391092;32;33425;-75
2022/08/22 06:33:05;;;;;;;;;;;;;;;22.80;73.84;99664.25;5373498;32;35055;-62
2022/08/22 06:36:32;;;;;;;;;;;;;;;23.03;73.63;99669.94;5377731;32;44803;-61
2022/08/22 06:39:36;;;;;;;;;;;;;;;23.28;72.38;99672.78;5396102;32;34562;-74
2022/08/22 06:42:40;;;;;;;;;;;;;;;23.07;73.38;99681.22;5386302;32;34046;-61
2022/08/22 06:45:41;;;;;;;;;;;;;;;23.23;72.98;99676.78;5395906;32;44722;-74
2022/08/22 06:48:44;;;;;;;;;;;;;;;24.23;68.75;99669.84;5371139;32;34149;-73
2022/08/22 06:51:45;;;;;;;;;;;;;;;24.42;67.18;99678.63;5383594;32;35699;-62
2022/08/22 06:54:51;;;;;;;;;;;;;;;24.26;67.25;99682.94;5379734;32;34367;-64
2022/08/22 06:57:57;;;;;;;;;;;;;;;23.92;69.73;99674.97;5374326;32;34431;-71
2022/08/22 07:01:23;;;;;;;;;;;;;;;23.79;71.05;99671.91;5371216;32;35399;-63
2022/08/22 07:04:25;;;;;;;;;;;;;;;24.86;66.16;99663.03;5373205;32;35881;-65
2022/08/22 07:07:28;;;;;;;;;;;;;;;26.02;61.48;99665.22;5385122;32;35541;-64
2022/08/22 07:10:30;;;;;;;;;;;;;;;25.86;61.45;99672.38;5388990;32;34291;-69
2022/08/22 07:13:32;;;;;;;;;;;;;;;25.27;63.61;99666.50;5374563;32;34277;-65
2022/08/22 07:16:41;;;;;;;;;;;;;;;24.28;67.69;99672.87;5384133;32;34787;-63
2022/08/22 07:19:58;;;;;;;;;;;;;;;23.88;69.31;99686.16;5373388;32;43965;-64
2022/08/22 07:23:01;;;;;;;;;;;;;;;23.75;70.23;99676.72;5387680;32;35209;-73
2022/08/22 07:26:09;;;;;;;;;;;;;;;24.95;65.56;99679.97;5376848;32;35153;-73
2022/08/22 07:29:16;;;;;;;;;;;;;;;24.72;66.09;99682.50;5383833;32;44612;-73
2022/08/22 07:32:18;;;;;;;;;;;;;;;24.20;68.50;99691.62;5386430;32;34207;-78
2022/08/22 07:35:26;;;;;;;;;;;;;;;24.15;69.21;99687.75;5377287;32;34184;-70
2022/08/22 07:38:41;;;;;;;;;;;;;;;24.90;66.58;99693.09;5387731;32;34516;-84
2022/08/22 07:41:54;;;;;;;;;;;;;;;23.91;69.59;99677.81;5390238;32;44405;-71
2022/08/22 07:45:06;;;;;;;;;;;;;;;24.37;69.19;99680.97;5398494;32;34570;-73
2022/08/22 07:48:20;;;;;;;;;;;;;;;24.91;67.15;99690.22;5389500;32;34141;-66
2022/08/22 07:51:30;;;;;;;;;;;;;;;24.91;65.83;99687.53;5378336;32;34409;-74
2022/08/22 07:54:40;;;;;;;;;;;;;;;23.74;71.11;99688.47;5387477;32;35255;-73
2022/08/22 07:57:46;;;;;;;;;;;;;;;23.51;72.10;99687.34;5379810;32;46240;-66
2022/08/22 08:00:48;;;;;;;;;;;;;;;23.88;71.19;99691.53;5375320;32;34445;-66
2022/08/22 08:03:55;;;;;;;;;;;;;;;24.16;69.81;99698.34;5379484;32;35469;-65
2022/08/22 08:06:57;;;;;;;;;;;;;;;23.34;73.36;99697.13;5369726;32;35330;-66
2022/08/22 08:10:03;;;;;;;;;;;;;;;23.73;72.44;99694.00;5384196;32;35634;-72
2022/08/22 08:13:11;;;;;;;;;;;;;;;23.87;71.69;99698.75;5373969;32;33986;-67
2022/08/22 08:16:19;;;;;;;;;;;;;;;24.45;68.58;99694.41;5382588;32;44638;-72
2022/08/22 08:19:21;;;;;;;;;;;;;;;24.32;68.90;99694.84;5374609;32;34299;-69
2022/08/22 08:22:23;;;;;;;;;;;;;;;25.49;63.62;99688.31;5374304;32;34305;-72
2022/08/22 08:25:26;;;;;;;;;;;;;;;25.11;65.20;99691.56;5388463;32;34295;-73
2022/08/22 08:28:35;;;;;;;;;;;;;;;25.00;65.45;99694.59;5379142;32;34636;-70
2022/08/22 08:31:38;;;;;;;;;;;;;;;24.83;66.81;99692.91;5386224;32;34137;-69
2022/08/22 08:34:45;;;;;;;;;;;;;;;24.84;67.74;99695.44;5393886;32;44518;-76
2022/08/22 08:37:50;;;;;;;;;;;;;;;24.72;67.18;99695.94;5380748;32;35242;-69
2022/08/22 08:40:51;;;;;;;;;;;;;;;24.70;65.84;99698.78;5395389;32;35898;-66
2022/08/22 08:43:54;;;;;;;;;;;;;;;25.50;61.84;99695.34;5393850;32;34110;-71
2022/08/22 08:47:15;;;;;;;;;;;;;;;25.69;60.82;99689.56;5391458;32;36177;-68
2022/08/22 08:50:22;;;;;;;;;;;;;;;24.67;64.01;99693.78;5380845;32;44595;-74
2022/08/22 08:53:44;;;;;;;;;;;;;;;25.15;62.11;99697.47;5402106;32;34199;-74
2022/08/22 08:56:51;;;;;;;;;;;;;;;24.67;63.73;99704.53;5382573;32;44370;-65
2022/08/22 09:00:13;;;;;;;;;;;;;;;25.01;62.68;99690.91;5380263;32;34355;-73
2022/08/22 09:03:24;;;;;;;;;;;;;;;24.94;63.66;99697.13;5376023;32;44672;-72
2022/08/22 09:06:32;;;;;;;;;;;;;;;26.45;58.30;99707.75;5381935;32;34094;-69
2022/08/22 09:09:33;;;;;;;;;;;;;;;26.33;56.95;99698.38;5389832;32;34167;-68
2022/08/22 09:12:35;;;;;;;;;;;;;;;26.66;56.37;99692.78;5389314;32;35376;-67
2022/08/22 09:16:06;;;;;;;;;;;;;;;27.24;54.04;99686.75;5378245;32;36252;-69
2022/08/22 09:19:29;;;;;;;;;;;;;;;26.49;55.95;99685.84;5393355;32;43990;-69
2022/08/22 09:23:00;;;;;;;;;;;;;;;28.11;52.13;99672.53;5380445;32;34250;-73
2022/08/22 09:26:19;;;;;;;;;;;;;;;29.25;49.41;99680.72;5338005;32;34800;-69
2022/08/22 09:29:31;;;;;;;;;;;;;;;27.35;53.21;99682.72;5392827;32;34315;-68
2022/08/22 09:32:40;;;;;;;;;;;;;;;27.42;52.42;99678.25;5374952;32;34263;-67
2022/08/22 09:35:45;;;;;;;;;;;;;;;27.63;52.34;99682.06;5390923;32;44523;-68
2022/08/22 09:38:54;;;;;;;;;;;;;;;27.76;52.04;99680.44;5383573;32;34815;-71
2022/08/22 09:42:26;;;;;;;;;;;;;;;27.18;53.09;99683.94;5386675;32;33781;-73
2022/08/22 09:45:30;;;;;;;;;;;;;;;26.81;54.71;99684.75;5380719;32;35203;-78
2022/08/22 09:48:38;;;;;;;;;;;;;;;27.41;53.13;99681.16;5380497;32;34221;-74
2022/08/22 09:51:53;;;;;;;;;;;;;;;27.47;53.27;99692.03;5393173;32;45283;-76
2022/08/22 09:55:12;;;;;;;;;;;;;;;27.52;52.80;99691.50;5386999;32;35957;-70
2022/08/22 09:58:36;;;;;;;;;;;;;;;26.83;54.16;99691.62;5380766;32;44709;-72
2022/08/22 10:01:47;;;;;;;;;;;;;;;27.87;51.26;99695.31;5373417;32;43648;-72
2022/08/22 10:04:53;;;;;;;;;;;;;;;26.78;57.09;99696.72;5375845;32;34920;-70
2022/08/22 10:08:12;;;;;;;;;;;;;;;26.69;58.45;99689.75;5394587;32;34542;-73
2022/08/22 10:11:48;;;;;;;;;;;;;;;27.34;55.41;99691.84;5405080;32;44300;-82
2022/08/22 10:14:52;;;;;;;;;;;;;;;27.94;51.43;99704.31;5349554;32;35220;-73
2022/08/22 10:18:00;;;;;;;;;;;;;;;27.76;52.30;99707.44;5391471;32;35584;-72
2022/08/22 10:21:04;;;;;;;;;;;;;;;27.00;53.73;99703.13;5383285;32;35093;-74
2022/08/22 10:24:19;;;;;;;;;;;;;;;27.82;51.84;99705.00;5380856;32;35613;-65
2022/08/22 10:27:38;;;;;;;;;;;;;;;28.12;50.62;99705.78;5389555;32;33773;-75
2022/08/22 10:31:00;;;;;;;;;;;;;;;26.86;55.44;99712.84;5380470;32;44907;-81
2022/08/22 10:34:13;;;;;;;;;;;;;;;27.84;51.49;99706.50;5393289;32;34482;-75
2022/08/22 10:37:17;;;;;;;;;;;;;;;27.74;52.26;99708.62;5372310;32;45208;-74
2022/08/22 10:40:24;;;;;;;;;;;;;;;27.25;54.01;99709.16;5371929;32;35133;-74
2022/08/22 10:43:29;;;;;;;;;;;;;;;27.17;53.96;99706.53;5400984;32;35366;-74
2022/08/22 10:46:36;;;;;;;;;;;;;;;27.62;52.58;99704.69;5374968;32;34583;-76
2022/08/22 10:49:43;;;;;;;;;;;;;;;27.91;51.51;99703.87;5394113;32;34743;-70
2022/08/22 10:52:47;;;;;;;;;;;;;;;28.17;50.51;99698.78;5372525;32;45655;-79
2022/08/22 10:55:49;;;;;;;;;;;;;;;28.24;50.80;99702.41;5371175;32;35478;-81
2022/08/22 10:59:05;;;;;;;;;;;;;;;28.75;48.95;99693.41;5383079;32;35172;-70
2022/08/22 11:02:16;;;;;;;;;;;;;;;28.87;48.06;99691.84;5364320;32;35060;-79
2022/08/22 11:05:22;;;;;;;;;;;;;;;28.89;48.57;99689.75;5393488;32;44808;-72
2022/08/22 11:08:33;;;;;;;;;;;;;;;30.15;44.94;99688.72;5382438;32;34452;-79
2022/08/22 11:12:05;;;;;;;;;;;;;;;30.11;44.79;99687.47;5377253;32;34257;-75
2022/08/22 11:15:17;;;;;;;;;;;;;;;29.32;45.99;99682.44;5382161;32;35480;-75
2022/08/22 11:18:41;;;;;;;;;;;;;;;28.03;48.95;99687.00;5379300;32;36004;-76
2022/08/22 11:21:58;;;;;;;;;;;;;;;27.73;49.89;99691.59;5388606;32;35491;-76
2022/08/22 11:25:20;;;;;;;;;;;;;;;29.14;46.51;99684.78;5387726;32;34383;-75
2022/08/22 11:28:52;;;;;;;;;;;;;;;28.94;47.17;99675.69;5380582;32;34078;-77
2022/08/22 11:32:00;;;;;;;;;;;;;;;29.65;45.29;99688.06;5384028;32;34331;-74
2022/08/22 11:35:17;;;;;;;;;;;;;;;29.12;46.27;99690.41;5384958;32;34140;-77
2022/08/22 11:38:38;;;;;;;;;;;;;;;29.87;44.78;99682.53;5378932;32;44471;-81
2022/08/22 11:41:41;;;;;;;;;;;;;;;30.59;42.03;99678.38;5405990;32;33316;-75
2022/08/22 11:44:52;;;;;;;;;;;;;;;30.24;43.01;99670.41;5375412;32;34493;-76
2022/08/22 11:47:58;;;;;;;;;;;;;;;32.06;38.58;99664.41;5398301;32;34321;-77
2022/08/22 11:51:03;;;;;;;;;;;;;;;31.85;38.55;99668.28;5372574;32;35240;-69
2022/08/22 11:54:19;;;;;;;;;;;;;;;32.82;35.58;99647.19;5390600;32;44603;-71
2022/08/22 11:57:36;;;;;;;;;;;;;;;32.34;36.67;99662.19;5386992;32;34158;-70
2022/08/22 12:00:55;;;;;;;;;;;;;;;29.59;42.69;99661.78;5365010;32;34429;-78
2022/08/22 12:03:59;;;;;;;;;;;;;;;29.85;41.47;99661.06;5395708;32;34300;-76
2022/08/22 12:07:06;;;;;;;;;;;;;;;29.77;41.87;99663.97;5369816;32;34879;-72
2022/08/22 12:10:13;;;;;;;;;;;;;;;28.20;46.18;99665.97;5392436;32;34177;-70
2022/08/22 12:13:19;;;;;;;;;;;;;;;29.04;44.39;99658.06;5404510;32;44930;-67
2022/08/22 12:16:35;;;;;;;;;;;;;;;29.04;46.23;99659.94;5377831;32;34179;-69
2022/08/22 12:19:56;;;;;;;;;;;;;;;28.02;50.81;99668.31;5408107;32;35390;-69
2022/08/22 12:23:39;;;;;;;;;;;;;;;27.47;53.74;99670.47;5385583;32;33703;-69
2022/08/22 12:27:10;;;;;;;;;;;;;;;27.49;52.22;99663.00;5376557;32;36455;-70
2022/08/22 12:30:12;;;;;;;;;;;;;;;28.03;50.17;99668.09;5390238;32;44892;-69
2022/08/22 12:33:33;;;;;;;;;;;;;;;28.01;49.86;99656.63;5387071;32;34298;-91
2022/08/22 12:36:35;;;;;;;;;;;;;;;28.28;49.24;99654.25;5377078;32;34307;-91
2022/08/22 12:39:37;;;;;;;;;;;;;;;27.82;50.78;99651.00;5398476;32;36386;-91
2022/08/22 12:43:00;;;;;;;;;;;;;;;27.75;51.22;99657.16;5379674;32;44599;-87
2022/08/22 12:46:15;;;;;;;;;;;;;;;28.62;47.56;99645.44;5392728;32;33355;-84
2022/08/22 12:49:17;;;;;;;;;;;;;;;28.42;47.91;99639.84;5375431;32;44273;-89
2022/08/22 12:52:29;;;;;;;;;;;;;;;27.55;50.03;99647.94;5385640;32;33953;-91
2022/08/22 12:55:33;;;;;;;;;;;;;;;28.22;48.38;99631.53;5387117;32;34295;-89
2022/08/22 12:58:41;;;;;;;;;;;;;;;28.34;47.78;99645.41;5384970;32;34495;-88
2022/08/22 13:01:45;;;;;;;;;;;;;;;28.71;47.27;99641.56;5362313;32;44930;-86
2022/08/22 13:04:49;;;;;;;;;;;;;;;28.62;47.30;99641.91;5369430;32;35940;-87
2022/08/22 13:07:53;;;;;;;;;;;;;;;29.00;46.02;99637.88;5392831;32;35079;-87
2022/08/22 13:10:57;;;;;;;;;;;;;;;28.74;46.65;99638.47;5370918;32;35384;-77
2022/08/22 13:13:59;;;;;;;;;;;;;;;28.19;48.62;99642.69;5365716;32;34430;-80
2022/08/22 13:17:03;;;;;;;;;;;;;;;27.96;51.11;99648.28;5374645;32;34232;-76
2022/08/22 13:20:30;;;;;;;;;;;;;;;27.04;54.68;99646.94;5380830;32;34403;-81
2022/08/22 13:23:35;;;;;;;;;;;;;;;26.61;57.14;99652.91;5382562;32;34787;-79
2022/08/22 13:26:46;;;;;;;;;;;;;;;26.86;57.10;99656.25;5368508;32;44622;-79
2022/08/22 13:29:51;;;;;;;;;;;;;;;26.73;57.56;99650.63;5359983;32;35832;-79
2022/08/22 13:32:56;;;;;;;;;;;;;;;26.63;58.08;99661.66;5395932;32;35265;-74
2022/08/22 13:36:05;;;;;;;;;;;;;;;27.19;55.16;99666.75;5381604;32;33358;-75
2022/08/22 13:39:11;;;;;;;;;;;;;;;27.54;54.34;99659.75;5393161;32;47284;-70
2022/08/22 13:42:17;;;;;;;;;;;;;;;28.14;52.29;99665.91;5375596;32;35470;-75
2022/08/22 13:45:32;;;;;;;;;;;;;;;28.12;52.47;99676.06;5374429;32;33320;-79
2022/08/22 13:48:45;;;;;;;;;;;;;;;27.32;57.20;99682.28;5382911;32;34493;-77
2022/08/22 13:51:52;;;;;;;;;;;;;;;28.52;51.46;99685.47;5367431;32;36588;-72
2022/08/22 13:55:13;;;;;;;;;;;;;;;28.78;51.09;99684.88;5390538;32;34577;-74
2022/08/22 13:58:16;;;;;;;;;;;;;;;28.43;51.32;99683.94;5380211;32;44504;-77
2022/08/22 14:01:31;;;;;;;;;;;;;;;28.41;51.29;99680.59;5365773;32;35496;-73
2022/08/22 14:04:34;;;;;;;;;;;;;;;26.79;57.53;99684.91;5387155;32;35511;-74
2022/08/22 14:07:44;;;;;;;;;;;;;;;27.09;56.10;99682.34;5371438;32;34235;-76
2022/08/22 14:10:52;;;;;;;;;;;;;;;27.65;53.74;99667.38;5395470;32;35327;-77
2022/08/22 14:14:00;;;;;;;;;;;;;;;27.22;54.24;99671.75;5376114;32;34500;-75
2022/08/22 14:17:01;;;;;;;;;;;;;;;26.87;55.58;99674.09;5379560;32;34877;-77
2022/08/22 14:20:10;;;;;;;;;;;;;;;26.84;56.02;99671.75;5380665;32;34358;-77
2022/08/22 14:23:16;;;;;;;;;;;;;;;27.51;53.22;99671.78;5386644;32;44785;-82
2022/08/22 14:26:25;;;;;;;;;;;;;;;27.29;53.62;99664.59;5391908;32;36498;-79
2022/08/22 14:29:37;;;;;;;;;;;;;;;27.03;54.93;99664.16;5384458;32;34039;-90
2022/08/22 14:32:44;;;;;;;;;;;;;;;26.44;57.97;99673.75;5396423;32;45072;-89
2022/08/22 14:35:48;;;;;;;;;;;;;;;26.45;58.47;99663.81;5382290;32;36384;-88
2022/08/22 14:38:55;;;;;;;;;;;;;;;25.80;61.69;99662.31;5373401;32;34272;-88
2022/08/22 14:42:03;;;;;;;;;;;;;;;25.75;62.70;99655.78;5383429;32;34610;-76
2022/08/22 14:45:13;;;;;;;;;;;;;;;25.31;63.18;99659.78;5375816;32;43873;-76
2022/08/22 14:48:26;;;;;;;;;;;;;;;25.58;62.25;99665.75;5394323;32;34398;-77
2022/08/22 14:51:32;;;;;;;;;;;;;;;26.24;58.25;99680.59;5375875;32;35579;-76
2022/08/22 14:54:34;;;;;;;;;;;;;;;25.53;62.42;99678.88;5384472;32;35594;-75
2022/08/22 14:57:40;;;;;;;;;;;;;;;24.96;66.30;99666.37;5386976;32;34434;-81
2022/08/22 15:00:43;;;;;;;;;;;;;;;24.53;68.75;99672.91;5366128;32;45965;-85
2022/08/22 15:03:53;;;;;;;;;;;;;;;25.29;65.64;99669.03;5381201;32;35490;-65
2022/08/22 15:06:56;;;;;;;;;;;;;;;25.58;63.67;99671.13;5374420;32;34422;-68
2022/08/22 15:10:02;;;;;;;;;;;;;;;25.78;62.89;99676.97;5384188;32;35673;-70
2022/08/22 15:13:07;;;;;;;;;;;;;;;24.94;65.33;99659.50;5390189;32;34489;-70
2022/08/22 15:16:15;;;;;;;;;;;;;;;25.00;64.79;99664.19;5377073;32;33947;-69
2022/08/22 15:19:24;;;;;;;;;;;;;;;25.62;61.51;99670.59;5387518;32;44809;-69
2022/08/22 15:22:28;;;;;;;;;;;;;;;25.08;65.50;99691.09;5378351;32;35743;-70
2022/08/22 15:25:34;;;;;;;;;;;;;;;24.61;66.15;99697.13;5382526;32;34881;-69
2022/08/22 15:28:41;;;;;;;;;;;;;;;24.54;66.94;99696.13;5382545;32;44737;-70
2022/08/22 15:31:55;;;;;;;;;;;;;;;24.46;67.13;99690.72;5365037;32;34143;-70
2022/08/22 15:35:04;;;;;;;;;;;;;;;25.08;65.14;99691.09;5378561;32;34365;-71
2022/08/22 15:38:09;;;;;;;;;;;;;;;24.67;66.43;99703.69;5375206;32;34542;-70
2022/08/22 15:41:27;;;;;;;;;;;;;;;24.22;68.09;99699.56;5385335;32;45058;-72
2022/08/22 15:44:38;;;;;;;;;;;;;;;24.21;68.09;99701.38;5388251;32;34827;-71
2022/08/22 15:47:49;;;;;;;;;;;;;;;24.67;66.51;99704.53;5377124;32;45391;-72
2022/08/22 15:50:54;;;;;;;;;;;;;;;23.76;70.69;99704.41;5385575;32;33038;-72
2022/08/22 15:54:02;;;;;;;;;;;;;;;23.87;70.15;99719.37;5371396;32;34463;-70
2022/08/22 15:57:33;;;;;;;;;;;;;;;23.72;72.44;99730.72;5396863;32;34705;-75
2022/08/22 16:00:38;;;;;;;;;;;;;;;24.04;69.89;99734.56;5366500;32;34791;-75
2022/08/22 16:03:55;;;;;;;;;;;;;;;23.84;70.32;99730.44;5356186;32;46061;-70
2022/08/22 16:06:59;;;;;;;;;;;;;;;23.63;70.84;99725.47;5388595;32;34561;-69
2022/08/22 16:10:03;;;;;;;;;;;;;;;23.90;70.12;99725.28;5371893;32;35310;-74
2022/08/22 16:13:24;;;;;;;;;;;;;;;24.17;68.64;99720.66;5374793;32;34840;-74
2022/08/22 16:16:26;;;;;;;;;;;;;;;24.40;67.71;99726.28;5371974;32;36169;-74
2022/08/22 16:19:29;;;;;;;;;;;;;;;24.15;67.90;99725.34;5377126;32;35322;-68
2022/08/22 16:22:50;;;;;;;;;;;;;;;24.50;66.96;99716.25;5380931;32;34511;-76
2022/08/22 16:25:52;;;;;;;;;;;;;;;24.61;66.08;99718.63;5370396;32;34413;-75
2022/08/22 16:29:09;;;;;;;;;;;;;;;24.21;67.22;99720.16;5394723;32;34844;-73
2022/08/22 16:32:22;;;;;;;;;;;;;;;23.63;69.62;99720.94;5377983;32;45127;-68
2022/08/22 16:35:42;;;;;;;;;;;;;;;23.86;69.37;99723.06;5364143;32;34760;-74